createdAt,value
2023-03-05T00:02:21.827Z,101015.47
2023-03-05T00:07:25.764Z,101058.75
2023-03-05T00:12:30.776Z,101057.88
2023-03-05T00:17:34.697Z,101051.88
2023-03-05T00:22:38.776Z,101056.09
2023-03-05T00:27:42.524Z,101045.84
2023-03-05T00:32:46.524Z,101044.97
2023-03-05T00:37:52.218Z,101033.91
2023-03-05T00:42:56.120Z,101034.75
2023-03-05T00:48:00.523Z,101033.91
2023-03-05T00:53:04.511Z,101041.53
2023-03-05T00:58:08.480Z,101033.91
2023-03-05T01:03:12.422Z,100948.25
2023-03-05T01:08:17.813Z,101030.50
2023-03-05T01:13:21.799Z,101026.22
2023-03-05T01:18:25.755Z,101020.25
2023-03-05T01:23:29.594Z,101026.22
2023-03-05T01:28:34.124Z,101020.28
2023-03-05T01:33:39.283Z,100998.22
2023-03-05T01:38:48.711Z,101035.59
2023-03-05T01:43:53.644Z,101008.34
2023-03-05T01:49:06.271Z,101021.03
2023-03-05T01:54:12.860Z,101039.66
2023-03-05T01:59:18.378Z,101023.25
2023-03-05T02:04:29.924Z,101018.63
2023-03-05T02:09:33.713Z,101013.25
2023-03-05T02:14:38.425Z,100988.47
2023-03-05T02:19:54.535Z,100991.47
2023-03-05T02:24:58.495Z,100996.44
2023-03-05T02:30:03.013Z,100999.72
2023-03-05T02:35:08.047Z,101010.09
2023-03-05T02:40:13.532Z,101022.72
2023-03-05T02:45:18.727Z,101032.84
2023-03-05T02:50:23.623Z,101038.66
2023-03-05T02:55:27.482Z,101034.22
2023-03-05T03:00:31.770Z,101006.69
2023-03-05T03:05:37.496Z,101030.03
2023-03-05T03:10:42.071Z,101027.91
2023-03-05T03:15:47.089Z,101024.94
2023-03-05T03:20:50.858Z,101032.38
2023-03-05T03:25:54.785Z,101028.66
2023-03-05T03:30:58.717Z,101036.22
2023-03-05T03:36:04.283Z,101021.34
2023-03-05T03:41:09.682Z,101039.47
2023-03-05T03:46:13.572Z,101034.78
2023-03-05T03:51:17.679Z,101043.31
2023-03-05T03:56:21.534Z,101016.78
2023-03-05T04:01:25.728Z,101045.75
2023-03-05T04:06:29.695Z,101037.03
2023-03-05T04:11:33.632Z,100998.84
2023-03-05T04:16:37.610Z,101031.69
2023-03-05T04:21:42.056Z,101020.56
2023-03-05T04:26:46.271Z,101022.03
2023-03-05T04:31:50.157Z,101023.31
2023-03-05T04:36:54.044Z,101017.59
2023-03-05T04:41:57.959Z,101011.81
2023-03-05T04:47:01.699Z,101018.53
2023-03-05T04:52:05.657Z,101011.72
2023-03-05T04:57:09.458Z,101005.97
2023-03-05T05:02:13.520Z,100938.66
2023-03-05T05:07:17.633Z,101002.75
2023-03-05T05:12:21.446Z,101015.84
2023-03-05T05:17:25.755Z,101003.00
2023-03-05T05:22:30.309Z,100975.69
2023-03-05T05:27:34.453Z,100915.19
2023-03-05T05:32:38.459Z,100985.75
2023-03-05T05:37:42.448Z,100981.22
2023-03-05T05:42:46.439Z,100980.22
2023-03-05T05:48:27.553Z,100965.59
2023-03-05T05:53:31.380Z,100955.25
2023-03-05T05:58:35.632Z,100938.56
2023-03-05T06:03:39.566Z,100940.16
2023-03-05T06:08:44.250Z,100926.38
2023-03-05T06:13:50.032Z,100940.00
2023-03-05T06:18:54.439Z,100930.34
2023-03-05T06:23:59.588Z,100921.66
2023-03-05T06:29:03.716Z,100919.97
2023-03-05T06:34:07.706Z,100902.34
2023-03-05T06:39:11.575Z,100894.13
2023-03-05T06:44:15.479Z,100896.25
2023-03-05T06:49:20.422Z,100884.69
2023-03-05T06:54:24.337Z,100885.44
2023-03-05T06:59:28.225Z,100871.47
2023-03-05T07:04:32.000Z,100867.81
2023-03-05T07:09:36.313Z,100854.75
2023-03-05T07:14:40.248Z,100841.44
2023-03-05T07:19:44.829Z,100829.78
2023-03-05T07:24:49.085Z,100833.03
2023-03-05T07:29:52.925Z,100830.47
2023-03-05T07:34:56.893Z,100816.56
2023-03-05T07:40:00.663Z,100814.28
2023-03-05T07:45:05.070Z,100792.31
2023-03-05T07:50:09.956Z,100808.09
2023-03-05T07:55:13.857Z,100813.88
2023-03-05T08:00:18.476Z,100804.34
2023-03-05T08:05:22.433Z,100795.19
2023-03-05T08:10:26.730Z,100797.84
2023-03-05T08:15:32.247Z,100781.06
2023-03-05T08:20:37.405Z,100791.22
2023-03-05T08:25:41.172Z,100793.00
2023-03-05T08:30:45.239Z,100780.19
2023-03-05T08:35:49.120Z,100776.94
2023-03-05T08:40:52.996Z,100759.16
2023-03-05T08:45:56.895Z,100725.56
2023-03-05T08:51:08.117Z,100764.97
2023-03-05T08:56:12.904Z,100755.63
2023-03-05T09:01:16.888Z,100752.06
2023-03-05T09:06:20.787Z,100746.91
2023-03-05T09:11:24.970Z,100756.22
2023-03-05T09:16:28.940Z,100738.81
2023-03-05T09:21:32.774Z,100719.13
2023-03-05T09:26:36.778Z,100733.34
2023-03-05T09:31:41.165Z,100717.91
2023-03-05T09:36:45.134Z,100713.69
2023-03-05T09:42:09.881Z,100712.00
2023-03-05T09:47:22.956Z,100703.34
2023-03-05T09:52:54.622Z,100705.47
2023-03-05T09:58:08.440Z,100704.09
2023-03-05T10:03:44.615Z,100695.78
2023-03-05T10:09:03.287Z,100680.69
2023-03-05T10:14:14.699Z,100678.28
2023-03-05T10:19:47.413Z,100667.44
2023-03-05T10:25:09.398Z,100664.16
2023-03-05T10:30:33.904Z,100651.31
2023-03-05T10:36:01.408Z,100644.63
2023-03-05T10:41:34.073Z,100632.53
2023-03-05T10:46:40.608Z,100638.63
2023-03-05T10:52:10.454Z,100618.13
2023-03-05T10:57:20.215Z,100609.66
2023-03-05T11:02:25.164Z,100612.38
2023-03-05T11:07:39.144Z,100605.34
2023-03-05T11:12:43.548Z,100585.22
2023-03-05T11:17:49.706Z,100573.13
2023-03-05T11:23:13.368Z,100578.41
2023-03-05T11:28:32.201Z,100572.50
2023-03-05T11:33:38.708Z,100545.28
2023-03-05T11:39:08.664Z,100547.09
2023-03-05T11:44:17.372Z,100464.59
2023-03-05T11:49:25.023Z,100534.59
2023-03-05T11:54:43.418Z,100528.78
2023-03-05T11:59:47.468Z,100511.84
2023-03-05T12:04:52.692Z,100505.13
2023-03-05T12:09:56.760Z,100500.16
2023-03-05T12:22:17.194Z,100480.94
2023-03-05T12:27:47.481Z,100468.31
2023-03-05T12:32:54.810Z,100464.25
2023-03-05T12:38:02.954Z,100459.25
2023-03-05T12:43:34.016Z,100442.34
2023-03-05T12:48:44.255Z,100431.41
2023-03-05T12:53:52.555Z,100420.44
2023-03-05T12:59:01.377Z,100396.03
2023-03-05T13:04:11.967Z,100407.88
2023-03-05T13:09:37.103Z,100398.69
2023-03-05T13:14:45.894Z,100392.00
2023-03-05T13:19:49.970Z,100381.06
2023-03-05T13:25:15.171Z,100381.19
2023-03-05T13:30:28.729Z,100371.19
2023-03-05T13:35:34.262Z,100362.09
2023-03-05T13:40:38.991Z,100361.63
2023-03-05T13:45:45.082Z,100343.16
2023-03-05T13:50:57.478Z,100355.41
2023-03-05T13:56:05.899Z,100348.88
2023-03-05T14:01:33.221Z,100345.88
2023-03-05T14:06:47.242Z,100330.84
2023-03-05T14:12:31.277Z,100315.84
2023-03-05T14:17:42.536Z,100316.97
2023-03-05T14:22:49.268Z,100306.09
2023-03-05T14:27:53.464Z,100286.00
2023-03-05T14:33:00.113Z,100293.06
2023-03-05T14:38:04.188Z,100277.66
2023-03-05T14:43:12.570Z,100268.31
2023-03-05T14:48:19.761Z,100264.09
2023-03-05T14:53:27.595Z,100246.19
2023-03-05T14:58:34.340Z,100233.19
2023-03-05T15:03:39.448Z,100220.59
2023-03-05T15:08:43.230Z,100215.38
2023-03-05T15:13:47.199Z,100132.13
2023-03-05T15:18:51.622Z,100204.22
2023-03-05T15:23:55.556Z,100182.94
2023-03-05T15:28:59.641Z,100172.66
2023-03-05T15:34:03.455Z,100165.84
2023-03-05T15:39:08.147Z,100148.84
2023-03-05T15:44:12.049Z,100134.50
2023-03-05T15:49:16.750Z,100113.97
2023-03-05T15:54:20.798Z,100103.63
2023-03-05T15:59:24.646Z,100113.75
2023-03-05T16:04:30.229Z,100112.94
2023-03-05T16:09:40.116Z,100097.50
2023-03-05T16:14:44.032Z,100097.34
2023-03-05T16:19:53.206Z,100087.78
2023-03-05T16:24:58.448Z,100083.44
2023-03-05T16:30:03.061Z,100069.84
2023-03-05T16:35:07.780Z,100057.84
2023-03-05T16:40:12.926Z,100055.38
2023-03-05T16:45:16.990Z,100036.75
2023-03-05T16:50:20.832Z,100034.22
2023-03-05T16:55:24.812Z,100021.53
2023-03-05T17:00:28.746Z,100024.88
2023-03-05T17:05:32.527Z,100009.53
2023-03-05T17:10:36.442Z,99998.41
2023-03-05T17:15:40.323Z,99928.56
2023-03-05T17:20:44.188Z,99982.06
2023-03-05T17:25:48.410Z,99983.75
2023-03-05T17:30:52.468Z,99894.59
2023-03-05T17:35:56.878Z,99953.84
2023-03-05T17:41:00.850Z,99941.22
2023-03-05T17:46:04.755Z,99958.81
2023-03-05T17:51:12.532Z,99953.88
2023-03-05T17:56:17.827Z,99934.75
2023-03-05T18:01:31.176Z,99923.34
2023-03-05T18:06:35.041Z,99930.25
2023-03-05T18:11:39.221Z,99907.72
2023-03-05T18:16:43.053Z,99920.31
2023-03-05T18:21:47.140Z,99912.00
2023-03-05T18:26:51.373Z,99910.22
2023-03-05T18:31:55.443Z,99904.28
2023-03-05T18:37:01.370Z,99888.88
2023-03-05T18:42:05.228Z,99888.84
2023-03-05T18:47:09.343Z,99888.06
2023-03-05T18:52:13.918Z,99894.88
2023-03-05T18:57:17.746Z,99880.25
2023-03-05T19:02:21.444Z,99879.38
2023-03-05T19:07:25.548Z,99871.69
2023-03-05T19:12:35.788Z,99872.56
2023-03-05T19:17:39.993Z,99874.34
2023-03-05T19:22:44.163Z,99875.13
2023-03-05T19:27:48.270Z,99865.75
2023-03-05T19:32:52.272Z,99864.16
2023-03-05T19:37:56.226Z,99864.28
2023-03-05T19:43:00.188Z,99879.41
2023-03-05T19:48:04.133Z,99884.66
2023-03-05T19:53:08.065Z,99865.09
2023-03-05T19:58:12.001Z,99868.63
2023-03-05T20:03:15.939Z,99872.16
2023-03-05T20:08:20.008Z,99870.56
2023-03-05T20:13:26.835Z,99864.66
2023-03-05T20:18:31.605Z,99877.44
2023-03-05T20:23:35.391Z,99862.13
2023-03-05T20:28:39.408Z,99870.72
2023-03-05T20:33:43.284Z,99875.78
2023-03-05T20:38:47.340Z,99877.53
2023-03-05T20:43:52.560Z,99869.03
2023-03-05T20:48:59.845Z,99855.41
2023-03-05T20:54:08.306Z,99869.16
2023-03-05T20:59:12.341Z,99853.06
2023-03-05T21:04:17.119Z,99859.91
2023-03-05T21:09:21.079Z,99869.34
2023-03-05T21:14:24.764Z,99857.34
2023-03-05T21:19:28.738Z,99861.66
2023-03-05T21:24:43.564Z,99868.50
2023-03-05T21:29:47.424Z,99866.81
2023-03-05T21:34:51.617Z,99795.47
2023-03-05T21:39:55.577Z,99849.78
2023-03-05T21:44:59.556Z,99860.03
2023-03-05T21:50:03.349Z,99856.66
2023-03-05T21:55:07.545Z,99866.91
2023-03-05T22:00:13.897Z,99877.97
2023-03-05T22:05:18.074Z,99857.78
2023-03-05T22:10:21.984Z,99876.34
2023-03-05T22:15:25.940Z,99885.69
2023-03-05T22:20:30.009Z,99874.00
2023-03-05T22:25:34.067Z,99877.06
2023-03-05T22:30:43.489Z,99896.63
2023-03-05T22:35:48.255Z,99899.22
2023-03-05T22:40:53.036Z,99895.88
2023-03-05T22:45:56.974Z,99900.97
2023-03-05T22:51:00.917Z,99886.47
2023-03-05T22:56:31.070Z,99903.44
2023-03-05T23:01:34.870Z,99908.56
2023-03-05T23:06:38.694Z,99912.00
2023-03-05T23:11:42.502Z,99941.81
2023-03-05T23:16:46.367Z,99935.38
2023-03-05T23:21:50.127Z,99934.25
2023-03-05T23:26:53.900Z,99951.25
2023-03-05T23:31:57.862Z,99950.41
2023-03-05T23:37:01.722Z,99950.44
2023-03-05T23:42:05.686Z,99964.94
2023-03-05T23:47:09.509Z,99956.44
2023-03-05T23:52:13.203Z,99959.19
2023-03-05T23:57:17.036Z,99940.13
